createdAt,value
2023-01-19T00:02:00.500Z,77.65
2023-01-19T00:04:28.089Z,77.63
2023-01-19T00:06:56.115Z,77.01
2023-01-19T00:09:23.621Z,78.97
2023-01-19T00:11:51.614Z,78.80
2023-01-19T00:14:21.066Z,78.54
2023-01-19T00:16:49.032Z,79.07
2023-01-19T00:19:16.811Z,78.98
2023-01-19T00:21:45.168Z,78.57
2023-01-19T00:24:12.839Z,78.02
2023-01-19T00:26:40.864Z,79.17
2023-01-19T00:29:08.760Z,79.56
2023-01-19T00:31:38.866Z,79.45
2023-01-19T00:34:07.633Z,79.54
2023-01-19T00:36:35.709Z,79.39
2023-01-19T00:39:03.306Z,78.93
2023-01-19T00:41:31.618Z,79.61
2023-01-19T00:43:59.391Z,79.24
2023-01-19T00:46:27.259Z,79.72
2023-01-19T00:48:56.446Z,79.63
2023-01-19T00:51:24.437Z,79.61
2023-01-19T00:53:51.998Z,79.56
2023-01-19T00:56:20.183Z,79.21
2023-01-19T00:58:47.719Z,79.44
2023-01-19T01:01:15.791Z,80.01
2023-01-19T01:03:43.411Z,79.66
2023-01-19T01:06:13.106Z,80.04
2023-01-19T01:08:41.155Z,80.33
2023-01-19T01:11:09.365Z,80.60
2023-01-19T01:13:37.476Z,79.86
2023-01-19T01:16:06.515Z,79.66
2023-01-19T01:18:34.361Z,79.04
2023-01-19T01:21:02.720Z,78.82
2023-01-19T01:23:32.064Z,78.46
2023-01-19T01:26:00.414Z,78.45
2023-01-19T01:28:27.945Z,78.21
2023-01-19T01:30:57.146Z,78.22
2023-01-19T01:33:41.341Z,78.39
2023-01-19T01:36:11.316Z,78.91
2023-01-19T01:38:41.207Z,78.83
2023-01-19T01:41:10.003Z,79.15
2023-01-19T01:43:48.967Z,79.47
2023-01-19T01:46:17.943Z,80.01
2023-01-19T01:48:52.560Z,79.79
2023-01-19T01:51:26.352Z,79.56
2023-01-19T01:54:14.096Z,78.98
2023-01-19T01:56:45.001Z,78.56
2023-01-19T01:59:15.791Z,78.28
2023-01-19T02:01:44.255Z,78.98
2023-01-19T02:04:11.875Z,78.70
2023-01-19T02:06:42.966Z,79.12
2023-01-19T02:09:12.232Z,78.45
2023-01-19T02:11:41.718Z,78.57
2023-01-19T02:14:09.325Z,78.52
2023-01-19T02:16:38.467Z,78.57
2023-01-19T02:19:08.936Z,78.32
2023-01-19T02:21:44.644Z,78.20
2023-01-19T02:24:14.239Z,78.45
2023-01-19T02:26:44.966Z,78.50
2023-01-19T02:29:16.568Z,79.02
2023-01-19T02:31:44.738Z,78.79
2023-01-19T02:34:14.868Z,78.92
2023-01-19T02:36:48.961Z,78.52
2023-01-19T02:39:20.548Z,78.87
2023-01-19T02:41:53.369Z,78.81
2023-01-19T02:44:24.216Z,78.76
2023-01-19T02:46:54.382Z,78.98
2023-01-19T02:49:22.048Z,78.86
2023-01-19T02:51:50.738Z,78.56
2023-01-19T02:54:33.845Z,79.21
2023-01-19T02:57:26.477Z,78.55
2023-01-19T03:00:07.629Z,78.84
2023-01-19T03:02:48.771Z,78.88
2023-01-19T03:05:27.356Z,79.07
2023-01-19T03:08:06.397Z,79.79
2023-01-19T03:10:45.577Z,79.40
2023-01-19T03:13:19.158Z,79.71
2023-01-19T03:15:50.369Z,80.26
2023-01-19T03:18:23.110Z,80.09
2023-01-19T03:20:52.627Z,80.18
2023-01-19T03:23:24.334Z,80.20
2023-01-19T03:25:56.262Z,80.65
2023-01-19T03:28:26.884Z,80.43
2023-01-19T03:30:59.164Z,80.49
2023-01-19T03:33:32.339Z,79.95
2023-01-19T03:36:05.670Z,80.69
2023-01-19T03:38:38.531Z,81.35
2023-01-19T03:41:11.707Z,82.21
2023-01-19T03:43:41.167Z,82.52
2023-01-19T03:46:09.893Z,82.88
2023-01-19T03:48:38.974Z,83.16
2023-01-19T03:51:09.088Z,83.44
2023-01-19T03:53:37.379Z,83.66
2023-01-19T03:56:08.800Z,83.74
2023-01-19T03:58:38.328Z,83.68
2023-01-19T04:01:05.961Z,84.19
2023-01-19T04:03:33.987Z,83.27
2023-01-19T04:06:01.608Z,83.37
2023-01-19T04:08:29.660Z,83.66
2023-01-19T04:10:58.271Z,84.18
2023-01-19T04:13:26.452Z,85.01
2023-01-19T04:15:55.602Z,84.77
2023-01-19T04:18:23.545Z,84.07
2023-01-19T04:20:50.985Z,84.27
2023-01-19T04:23:19.039Z,84.00
2023-01-19T04:25:46.549Z,83.94
2023-01-19T04:28:14.325Z,84.54
2023-01-19T04:30:41.839Z,84.50
2023-01-19T04:33:11.057Z,84.36
2023-01-19T04:35:38.759Z,84.22
2023-01-19T04:38:06.805Z,83.76
2023-01-19T04:40:34.316Z,84.03
2023-01-19T04:43:02.523Z,83.52
2023-01-19T04:45:30.265Z,83.21
2023-01-19T04:47:58.762Z,83.00
2023-01-19T04:50:27.887Z,84.05
2023-01-19T04:52:56.002Z,83.77
2023-01-19T04:55:23.981Z,84.37
2023-01-19T04:57:51.942Z,84.43
2023-01-19T05:00:19.911Z,83.67
2023-01-19T05:02:48.100Z,83.76
2023-01-19T05:05:16.298Z,83.97
2023-01-19T05:07:45.547Z,83.74
2023-01-19T05:10:13.601Z,83.68
2023-01-19T05:12:41.423Z,84.36
2023-01-19T05:15:13.205Z,84.62
2023-01-19T05:17:40.737Z,84.59
2023-01-19T05:20:11.155Z,85.06
2023-01-19T05:22:38.795Z,84.36
2023-01-19T05:25:09.522Z,84.07
2023-01-19T05:27:37.442Z,83.77
2023-01-19T05:30:09.259Z,83.54
2023-01-19T05:32:36.885Z,83.76
2023-01-19T05:35:05.346Z,83.74
2023-01-19T05:37:32.952Z,83.27
2023-01-19T05:40:01.045Z,83.25
2023-01-19T05:42:32.113Z,83.74
2023-01-19T05:45:00.743Z,83.60
2023-01-19T05:47:29.759Z,84.01
2023-01-19T05:49:57.719Z,83.54
2023-01-19T05:52:25.407Z,83.11
2023-01-19T05:54:53.430Z,82.72
2023-01-19T05:57:21.099Z,82.55
2023-01-19T05:59:50.692Z,83.24
2023-01-19T06:02:18.320Z,82.71
2023-01-19T06:04:46.401Z,82.66
2023-01-19T06:07:14.080Z,82.69
2023-01-19T06:09:41.890Z,82.82
2023-01-19T06:12:09.506Z,83.08
2023-01-19T06:14:37.665Z,83.02
2023-01-19T06:17:07.142Z,83.02
2023-01-19T06:19:37.741Z,82.40
2023-01-19T06:22:05.792Z,82.92
2023-01-19T06:24:33.779Z,81.29
2023-01-19T06:27:01.450Z,81.35
2023-01-19T06:29:29.784Z,80.73
2023-01-19T06:31:59.979Z,80.85
2023-01-19T06:34:29.597Z,80.08
2023-01-19T06:36:57.783Z,79.56
2023-01-19T06:39:26.023Z,78.46
2023-01-19T06:41:53.891Z,78.19
2023-01-19T06:44:21.765Z,78.24
2023-01-19T06:46:49.927Z,78.48
2023-01-19T06:49:17.901Z,77.88
2023-01-19T06:51:46.893Z,77.15
2023-01-19T06:54:14.783Z,76.82
2023-01-19T06:56:42.385Z,76.54
2023-01-19T06:59:10.365Z,76.98
2023-01-19T07:01:40.663Z,76.36
2023-01-19T07:04:08.849Z,75.97
2023-01-19T07:06:36.685Z,75.52
2023-01-19T07:09:06.318Z,75.03
2023-01-19T07:11:34.241Z,75.47
2023-01-19T07:14:02.392Z,74.80
2023-01-19T07:16:32.514Z,75.05
2023-01-19T07:19:03.749Z,75.23
2023-01-19T07:21:31.319Z,75.45
2023-01-19T07:23:59.378Z,75.41
2023-01-19T07:26:28.661Z,75.31
2023-01-19T07:28:57.035Z,75.13
2023-01-19T07:31:24.797Z,74.96
2023-01-19T07:33:52.860Z,74.42
2023-01-19T07:36:20.400Z,74.28
2023-01-19T07:38:48.560Z,74.20
2023-01-19T07:41:16.135Z,74.02
2023-01-19T07:43:45.615Z,73.50
2023-01-19T07:46:13.131Z,73.82
2023-01-19T07:48:41.134Z,74.19
2023-01-19T07:51:12.493Z,73.52
2023-01-19T07:53:40.838Z,73.85
2023-01-19T07:56:08.887Z,73.64
2023-01-19T07:58:36.804Z,73.08
2023-01-19T08:01:08.526Z,73.51
2023-01-19T08:03:36.608Z,72.94
2023-01-19T08:06:05.506Z,73.08
2023-01-19T08:08:33.981Z,73.33
2023-01-19T08:11:01.531Z,73.15
2023-01-19T08:13:32.079Z,72.53
2023-01-19T08:15:59.616Z,72.39
2023-01-19T08:18:29.479Z,73.03
2023-01-19T08:20:58.880Z,72.81
2023-01-19T08:23:28.283Z,72.32
2023-01-19T08:25:55.944Z,72.47
2023-01-19T08:28:24.194Z,73.28
2023-01-19T08:30:51.833Z,73.16
2023-01-19T08:33:20.401Z,73.07
2023-01-19T08:35:51.152Z,71.97
2023-01-19T08:38:19.048Z,71.00
2023-01-19T08:40:46.656Z,70.66
2023-01-19T08:43:17.099Z,70.56
2023-01-19T08:45:50.441Z,70.26
2023-01-19T08:48:19.943Z,69.35
2023-01-19T08:50:49.937Z,68.66
2023-01-19T08:53:19.480Z,66.99
2023-01-19T08:55:47.352Z,67.82
2023-01-19T08:58:15.704Z,66.63
2023-01-19T09:00:43.185Z,66.08
2023-01-19T09:03:12.754Z,65.42
2023-01-19T09:05:40.726Z,64.11
2023-01-19T09:08:12.388Z,63.67
2023-01-19T09:10:44.496Z,63.21
2023-01-19T09:13:13.206Z,63.50
2023-01-19T09:15:42.030Z,62.70
2023-01-19T09:18:12.129Z,63.10
2023-01-19T09:20:40.588Z,62.65
2023-01-19T09:23:10.999Z,62.33
2023-01-19T09:25:39.296Z,61.60
2023-01-19T09:28:08.157Z,62.23
2023-01-19T09:30:37.090Z,62.70
2023-01-19T09:33:06.109Z,61.85
2023-01-19T09:35:33.892Z,60.73
2023-01-19T09:38:02.233Z,60.74
2023-01-19T09:40:32.247Z,61.36
2023-01-19T09:43:12.069Z,60.76
2023-01-19T09:45:45.190Z,60.94
2023-01-19T09:48:26.499Z,60.29
2023-01-19T09:50:56.629Z,60.88
2023-01-19T09:53:39.123Z,60.17
2023-01-19T09:56:12.798Z,58.52
2023-01-19T09:58:41.590Z,59.88
2023-01-19T10:01:24.354Z,58.34
2023-01-19T10:04:08.409Z,58.16
2023-01-19T10:06:36.787Z,57.16
2023-01-19T10:09:11.386Z,56.57
2023-01-19T10:11:53.804Z,56.34
2023-01-19T10:14:29.263Z,56.15
2023-01-19T10:17:10.483Z,55.93
2023-01-19T10:19:46.535Z,55.89
2023-01-19T10:22:20.584Z,55.00
2023-01-19T10:24:53.316Z,54.29
2023-01-19T10:27:26.456Z,53.18
2023-01-19T10:29:54.697Z,53.70
2023-01-19T10:32:24.090Z,54.33
2023-01-19T10:34:53.291Z,53.36
2023-01-19T10:37:30.517Z,54.21
2023-01-19T10:40:07.969Z,53.23
2023-01-19T10:42:38.519Z,53.24
2023-01-19T10:45:15.775Z,52.64
2023-01-19T10:47:45.983Z,51.77
2023-01-19T10:50:25.629Z,51.74
2023-01-19T10:52:54.894Z,51.18
2023-01-19T10:55:30.576Z,50.49
2023-01-19T10:58:00.178Z,50.71
2023-01-19T11:00:34.319Z,49.14
2023-01-19T11:03:02.395Z,49.91
2023-01-19T11:05:32.348Z,49.29
2023-01-19T11:08:00.528Z,50.06
2023-01-19T11:10:29.868Z,50.03
2023-01-19T11:13:04.889Z,48.44
2023-01-19T11:15:35.154Z,46.99
2023-01-19T11:18:05.071Z,47.30
2023-01-19T11:20:40.719Z,48.06
2023-01-19T11:23:20.282Z,46.78
2023-01-19T11:25:51.074Z,46.77
2023-01-19T11:28:26.157Z,48.44
2023-01-19T11:30:56.039Z,47.86
2023-01-19T11:33:25.528Z,46.29
2023-01-19T11:36:03.495Z,46.49
2023-01-19T11:38:31.460Z,46.21
2023-01-19T11:41:01.341Z,47.31
2023-01-19T11:43:43.506Z,45.68
2023-01-19T11:46:17.701Z,45.54
2023-01-19T11:48:52.381Z,45.06
2023-01-19T11:51:21.834Z,46.07
2023-01-19T11:53:52.875Z,46.34
2023-01-19T11:56:24.417Z,45.55
2023-01-19T11:58:53.416Z,44.81
2023-01-19T12:01:24.841Z,45.50
2023-01-19T12:03:58.749Z,45.24
2023-01-19T12:06:31.428Z,43.95
2023-01-19T12:09:03.478Z,44.61
2023-01-19T12:11:34.896Z,46.24
2023-01-19T12:14:07.100Z,45.27
2023-01-19T12:16:38.170Z,45.78
2023-01-19T12:19:11.087Z,46.20
2023-01-19T12:21:39.351Z,45.98
2023-01-19T12:24:15.077Z,44.32
2023-01-19T12:26:51.269Z,44.45
2023-01-19T12:29:23.068Z,43.30
2023-01-19T12:32:19.658Z,44.09
2023-01-19T12:34:49.289Z,44.86
2023-01-19T12:37:37.369Z,44.30
2023-01-19T12:40:20.576Z,44.56
2023-01-19T12:42:55.332Z,44.83
2023-01-19T12:45:29.104Z,46.47
2023-01-19T12:47:57.128Z,45.99
2023-01-19T12:50:25.985Z,44.34
2023-01-19T12:52:56.771Z,44.00
2023-01-19T12:55:27.233Z,44.08
2023-01-19T12:57:59.259Z,43.64
2023-01-19T13:00:41.518Z,42.59
2023-01-19T13:03:51.699Z,42.92
2023-01-19T13:06:19.364Z,43.25
2023-01-19T13:08:59.156Z,43.85
2023-01-19T13:11:30.303Z,43.65
2023-01-19T13:14:34.656Z,44.31
2023-01-19T13:17:36.138Z,44.42
2023-01-19T13:20:27.381Z,44.45
2023-01-19T13:23:17.379Z,44.40
2023-01-19T13:25:50.972Z,45.51
2023-01-19T13:28:30.769Z,46.92
2023-01-19T13:31:00.074Z,47.33
2023-01-19T13:33:40.994Z,48.11
2023-01-19T13:36:24.603Z,48.72
2023-01-19T13:38:52.851Z,48.31
2023-01-19T13:41:23.690Z,49.34
2023-01-19T13:43:58.739Z,49.79
2023-01-19T13:46:28.997Z,50.59
2023-01-19T13:49:01.647Z,50.14
2023-01-19T13:51:29.623Z,51.14
2023-01-19T13:53:57.981Z,51.16
2023-01-19T13:56:29.654Z,50.89
2023-01-19T13:59:02.864Z,50.88
2023-01-19T14:01:31.066Z,51.62
2023-01-19T14:04:00.828Z,52.16
2023-01-19T14:06:35.940Z,53.20
2023-01-19T14:09:15.310Z,53.35
2023-01-19T14:11:43.524Z,53.93
2023-01-19T14:14:27.802Z,54.36
2023-01-19T14:16:55.895Z,53.27
2023-01-19T14:19:25.606Z,54.57
2023-01-19T14:22:08.829Z,55.07
2023-01-19T14:24:36.514Z,54.53
2023-01-19T14:27:10.694Z,54.85
2023-01-19T14:29:38.362Z,54.44
2023-01-19T14:32:12.862Z,54.83
2023-01-19T14:34:43.317Z,55.56
2023-01-19T14:37:23.736Z,55.50
2023-01-19T14:39:58.226Z,55.60
2023-01-19T14:42:29.558Z,56.04
2023-01-19T14:45:00.234Z,55.57
2023-01-19T14:47:37.651Z,56.22
2023-01-19T14:50:21.268Z,56.15
2023-01-19T14:52:54.178Z,56.49
2023-01-19T14:55:25.362Z,56.45
2023-01-19T14:57:54.959Z,57.09
2023-01-19T15:00:23.325Z,58.10
2023-01-19T15:02:51.403Z,58.60
2023-01-19T15:05:20.802Z,59.27
2023-01-19T15:07:49.562Z,59.05
2023-01-19T15:10:20.831Z,59.52
2023-01-19T15:12:50.157Z,59.55
2023-01-19T15:15:20.343Z,58.88
2023-01-19T15:17:48.928Z,59.11
2023-01-19T15:20:18.214Z,58.65
2023-01-19T15:22:48.902Z,58.91
2023-01-19T15:25:18.110Z,58.06
2023-01-19T15:27:51.807Z,57.95
2023-01-19T15:30:21.762Z,58.26
2023-01-19T15:32:50.039Z,58.17
2023-01-19T15:35:19.464Z,57.84
2023-01-19T15:37:52.199Z,58.39
2023-01-19T15:40:20.650Z,58.85
2023-01-19T15:42:48.922Z,58.54
2023-01-19T15:45:35.315Z,59.98
2023-01-19T15:48:06.280Z,59.70
2023-01-19T15:50:35.954Z,61.20
2023-01-19T15:53:05.977Z,61.44
2023-01-19T15:55:34.016Z,62.43
2023-01-19T15:58:01.881Z,60.94
2023-01-19T16:00:30.798Z,59.52
2023-01-19T16:03:00.533Z,61.28
2023-01-19T16:05:42.672Z,61.99
2023-01-19T16:08:16.824Z,61.88
2023-01-19T16:10:44.689Z,61.23
2023-01-19T16:13:12.947Z,61.13
2023-01-19T16:15:41.077Z,61.22
2023-01-19T16:18:09.228Z,61.51
2023-01-19T16:20:36.995Z,62.89
2023-01-19T16:23:20.107Z,64.12
2023-01-19T16:25:57.655Z,65.11
2023-01-19T16:28:26.911Z,63.13
2023-01-19T16:30:54.681Z,63.09
2023-01-19T16:33:23.288Z,62.59
2023-01-19T16:35:51.249Z,62.27
2023-01-19T16:38:19.508Z,61.81
2023-01-19T16:40:47.336Z,62.04
2023-01-19T16:43:16.933Z,62.28
2023-01-19T16:45:58.216Z,62.33
2023-01-19T16:48:26.562Z,62.91
2023-01-19T16:51:02.444Z,65.55
2023-01-19T16:53:31.344Z,68.18
2023-01-19T16:55:58.991Z,66.84
2023-01-19T16:58:28.525Z,68.14
2023-01-19T17:00:56.196Z,67.43
2023-01-19T17:03:24.513Z,67.19
2023-01-19T17:05:52.920Z,66.91
2023-01-19T17:08:21.626Z,64.77
2023-01-19T17:10:49.178Z,64.58
2023-01-19T17:13:17.323Z,65.18
2023-01-19T17:15:46.491Z,66.50
2023-01-19T17:18:14.639Z,66.35
2023-01-19T17:20:42.303Z,68.64
2023-01-19T17:23:10.319Z,69.10
2023-01-19T17:25:38.081Z,70.20
2023-01-19T17:28:06.553Z,70.25
2023-01-19T17:30:34.377Z,67.42
2023-01-19T17:33:04.543Z,67.01
2023-01-19T17:35:34.483Z,67.14
2023-01-19T17:38:02.500Z,66.51
2023-01-19T17:40:31.178Z,68.78
2023-01-19T17:42:59.349Z,69.90
2023-01-19T17:45:27.443Z,70.10
2023-01-19T17:47:55.798Z,70.17
2023-01-19T17:50:25.224Z,68.91
2023-01-19T17:52:55.431Z,68.59
2023-01-19T17:55:23.201Z,68.21
2023-01-19T17:57:51.295Z,68.51
2023-01-19T18:00:19.728Z,68.17
2023-01-19T18:02:49.822Z,66.51
2023-01-19T18:05:18.253Z,66.97
2023-01-19T18:07:48.071Z,65.61
2023-01-19T18:10:16.641Z,66.34
2023-01-19T18:12:47.381Z,70.71
2023-01-19T18:15:16.886Z,71.59
2023-01-19T18:17:48.344Z,72.80
2023-01-19T18:20:18.089Z,72.44
2023-01-19T18:22:48.313Z,72.93
2023-01-19T18:25:16.035Z,71.41
2023-01-19T18:27:44.282Z,71.66
2023-01-19T18:30:12.892Z,71.29
2023-01-19T18:32:41.161Z,72.27
2023-01-19T18:35:09.456Z,71.81
2023-01-19T18:37:37.662Z,71.88
2023-01-19T18:40:08.389Z,71.39
2023-01-19T18:42:37.007Z,70.43
2023-01-19T18:45:05.685Z,69.05
2023-01-19T18:47:33.814Z,68.13
2023-01-19T18:50:01.582Z,68.92
2023-01-19T18:52:29.941Z,70.42
2023-01-19T18:54:57.969Z,71.21
2023-01-19T18:57:27.830Z,70.52
2023-01-19T18:59:55.705Z,70.31
2023-01-19T19:02:23.906Z,71.13
2023-01-19T19:04:52.048Z,70.08
2023-01-19T19:07:20.529Z,70.54
2023-01-19T19:09:48.232Z,71.46
2023-01-19T19:12:16.369Z,71.05
2023-01-19T19:14:45.627Z,71.13
2023-01-19T19:17:13.738Z,69.33
2023-01-19T19:19:41.236Z,71.04
2023-01-19T19:22:09.243Z,71.72
2023-01-19T19:24:37.408Z,71.71
2023-01-19T19:27:08.533Z,70.36
2023-01-19T19:29:36.221Z,69.21
2023-01-19T19:32:06.021Z,69.13
2023-01-19T19:34:33.556Z,67.95
2023-01-19T19:37:01.787Z,68.02
2023-01-19T19:39:30.084Z,68.31
2023-01-19T19:41:58.136Z,68.53
2023-01-19T19:44:25.790Z,67.85
2023-01-19T19:46:54.063Z,69.25
2023-01-19T19:49:23.250Z,72.41
2023-01-19T19:51:51.122Z,71.74
2023-01-19T19:54:19.111Z,72.43
2023-01-19T19:56:47.746Z,70.88
2023-01-19T19:59:15.366Z,71.92
2023-01-19T20:01:43.789Z,72.62
2023-01-19T20:04:13.415Z,73.07
2023-01-19T20:06:44.214Z,71.35
2023-01-19T20:09:12.364Z,71.50
2023-01-19T20:11:41.313Z,73.30
2023-01-19T20:14:11.262Z,72.23
2023-01-19T20:16:39.892Z,72.80
2023-01-19T20:19:07.412Z,71.42
2023-01-19T20:21:36.613Z,72.37
2023-01-19T20:24:08.373Z,72.63
2023-01-19T20:26:39.766Z,71.83
2023-01-19T20:29:07.567Z,72.48
2023-01-19T20:31:37.455Z,71.43
2023-01-19T20:34:07.981Z,70.93
2023-01-19T20:36:36.381Z,72.16
2023-01-19T20:39:06.205Z,73.90
2023-01-19T20:41:34.507Z,73.89
2023-01-19T20:44:02.164Z,74.29
2023-01-19T20:46:30.289Z,72.04
2023-01-19T20:48:58.036Z,71.12
2023-01-19T20:51:25.979Z,70.14
2023-01-19T20:53:53.818Z,69.85
2023-01-19T20:56:23.300Z,70.15
2023-01-19T20:58:51.159Z,69.88
2023-01-19T21:01:21.473Z,69.92
2023-01-19T21:03:50.063Z,70.58
2023-01-19T21:06:19.010Z,70.50
2023-01-19T21:08:46.914Z,70.47
2023-01-19T21:11:15.737Z,71.35
2023-01-19T21:13:45.024Z,70.97
2023-01-19T21:16:13.264Z,71.89
2023-01-19T21:18:41.021Z,72.57
2023-01-19T21:21:17.713Z,72.17
2023-01-19T21:23:52.360Z,72.87
2023-01-19T21:26:20.263Z,73.61
2023-01-19T21:28:49.377Z,74.55
2023-01-19T21:31:17.636Z,74.35
2023-01-19T21:33:45.426Z,72.89
2023-01-19T21:36:13.488Z,74.83
2023-01-19T21:38:41.104Z,74.59
2023-01-19T21:41:10.991Z,73.56
2023-01-19T21:43:40.209Z,72.36
2023-01-19T21:46:14.948Z,70.91
2023-01-19T21:48:42.674Z,71.22
2023-01-19T21:51:10.586Z,72.20
2023-01-19T21:53:38.536Z,73.78
2023-01-19T21:56:07.063Z,74.25
2023-01-19T21:58:35.030Z,74.06
2023-01-19T22:01:05.962Z,74.26
2023-01-19T22:03:35.294Z,74.92
2023-01-19T22:06:05.171Z,73.84
2023-01-19T22:08:33.223Z,73.01
2023-01-19T22:11:05.115Z,72.36
2023-01-19T22:13:33.645Z,73.51
2023-01-19T22:16:01.816Z,73.70
2023-01-19T22:18:29.576Z,73.78
2023-01-19T22:21:07.716Z,73.53
2023-01-19T22:23:35.431Z,73.50
2023-01-19T22:26:03.673Z,73.56
2023-01-19T22:28:31.493Z,74.13
2023-01-19T22:31:07.195Z,73.66
2023-01-19T22:33:35.485Z,74.07
2023-01-19T22:36:16.473Z,74.06
2023-01-19T22:38:44.742Z,75.26
2023-01-19T22:41:15.002Z,75.55
2023-01-19T22:43:43.181Z,75.04
2023-01-19T22:46:11.353Z,75.52
2023-01-19T22:48:38.881Z,74.85
2023-01-19T22:51:07.001Z,74.62
2023-01-19T22:53:35.967Z,75.17
2023-01-19T22:56:10.820Z,73.90
2023-01-19T22:58:38.919Z,73.83
2023-01-19T23:01:07.638Z,73.64
2023-01-19T23:03:35.486Z,73.82
2023-01-19T23:06:05.567Z,74.25
2023-01-19T23:08:33.428Z,73.11
2023-01-19T23:11:06.413Z,74.43
2023-01-19T23:13:34.467Z,74.62
2023-01-19T23:16:03.531Z,75.18
2023-01-19T23:18:31.425Z,75.85
2023-01-19T23:21:03.655Z,74.99
2023-01-19T23:23:31.323Z,74.87
2023-01-19T23:26:00.763Z,75.30
2023-01-19T23:28:29.935Z,75.38
2023-01-19T23:30:57.966Z,75.20
2023-01-19T23:33:25.637Z,74.41
2023-01-19T23:35:55.685Z,74.04
2023-01-19T23:38:23.198Z,74.74
2023-01-19T23:40:51.254Z,74.24
2023-01-19T23:43:18.840Z,73.15
2023-01-19T23:45:48.432Z,72.93
2023-01-19T23:48:15.969Z,73.98
2023-01-19T23:50:43.979Z,76.24
2023-01-19T23:53:11.638Z,76.68
2023-01-19T23:55:39.756Z,76.49
2023-01-19T23:58:07.323Z,76.73
